ilmateenistus.ee keskkonnaagentuur.ee
EETN Tallinna lennuväli
FTEO31 EETN 162300
TAF EETN 162330Z 1700/1724 05008KT 9999 SCT040 TEMPO 1700/1703 1000
    BR BKN003 TEMPO 1708/1715 SCT030CB PROB40 TEMPO 1710/1714 VRB20KT
    3000 TSRA=

METAR EETN 162350Z 08003KT CAVOK 14/13 Q1007 =
Tallinna lennuväli
EEKA Kärdla lennuväli
METAR EEKA 162350Z NIL=
Kärdla lennuväli
EEKE Kuressaare lennuväli
METAR EEKE 162350Z AUTO 01006KT 9999NDV NSC 12/12 Q1007=
Kuressaare lennuväli
EEPU Pärnu lennuväli
METAR EEPU 162350Z NIL=
Pärnu lennuväli
EETU Tartu lennuväli
FCEO32 EETN 162000 AAA
TAF AMD EETU 170000Z 1621/1703 CNL=

METAR EETU 162350Z AUTO 00000KT 5000 R26/P2000N BR BKN098/// BKN120/// 12/11 Q1006=
Tartu lennuväli
EEEI Ämari lennuväli
SPECI EEEI 170005Z AUTO 00000KT 0550 0350SW R24/0500 FG VV001 11/11 Q1008=
Ämari lennuväli